Nearby METAR Reports

 

KAVP - Avoca/Wilkes B., Pennsylvania, USA
Distance from station: N 16mi, 25km
Updated: 11/16/2019 11:54pm
Clear
Clear
 Wind from ENE
Wind: ENE 5 mph , 7 km/h
Temperature: 28°F , -2°C
Wind Chill: 22°F , -6°C
Dew Point: -4°F , -20°C
Humidity: 24%
Barometer: 30.39 inHg , 1029.1 hPa
Clouds: Clear
Visibility: 10 miles , 16 km
2019/11/17 04:54 KAVP 170454Z 07004KT 10SM CLR M02/M20 A3039 RMK AO2 SLP301 T10221200 400441033
KMPO - Mt. Pocono, Pennsylvania, USA
Distance from station: E 20mi, 33km
Updated: 11/16/2019 11:53pm
Clear
Clear
 Wind from ENE
Wind: ENE 7 mph , 11 km/h
Temperature: 19°F , -7°C
Wind Chill: 10°F , -12°C
Dew Point: -4°F , -20°C
Humidity: 35%
Barometer: 30.33 inHg , 1027.1 hPa
Clouds: Clear
Visibility: 10 miles , 16 km
2019/11/17 04:53 KMPO 170453Z AUTO 06006KT 10SM CLR M07/M20 A3033 RMK AO2 SLP299 T10671200 400111067
 
KABE - Allentown, Pennsylvania, USA
Distance from station: SSE 36mi, 58km
Updated: 11/16/2019 11:51pm
Clear
Clear
 Wind from ENE
Wind: ENE 9 mph , 15 km/h
Temperature: 28°F , -2°C
Wind Chill: 19°F , -7°C
Dew Point: 5°F , -15°C
Humidity: 37%
Barometer: 30.43 inHg , 1030.5 hPa
Clouds: Clear
Visibility: 10 miles , 16 km
2019/11/17 04:51 KABE 170451Z 06008KT 10SM CLR M02/M15 A3043 RMK AO2 SLP309 T10221150 400561028
KXLL - Allentown Queen, Pennsylvania, USA
Distance from station: SSE 41mi, 65km
Updated: 11/17/2019 12:15am
Clear
Clear
 Wind from NE
Wind: NE 7 mph , 11 km/h
Temperature: 28°F , -2°C
Wind Chill: 21°F , -6°C
Dew Point: 9°F , -13°C
Humidity: 43%
Barometer: 30.44 inHg , 1030.8 hPa
Clouds: Clear
Visibility: 10 miles , 16 km
2019/11/17 05:15 KXLL 170515Z AUTO 04006KT 10SM CLR M02/M13 A3044 RMK AO2